• Join FlightAware (Why Join?)
  • Login
  • US Flag 
03:13AM EDT


 

Airport Tracker/Info


-or-


 

Live Flight TrackerFlight Track Log ✈ UAL4550 ✈ 25-Apr-2013 ✈ KSLC - KIAH

Flight Track Log - Related Links

Times and Time Zones

All times are in EDT time to prevent confusion due to time zone crossing. See the UAL4550 flight status page for this flight to view local times or setup timezone preferences in your user account.

Time Position Orientation Groundspeed Altitude Reporting Facility
EDT Latitude Longitude Course Direction KTS MPH feet Rate Location/Type
02:57PM 40.8033 -111.9633 114° Southeast 177 204 4,800  Level Salt Lake Center
02:58PM 40.8322 -111.9678 353° North 205 236 6,000 1,920 Climbing Salt Lake Center
02:59PM 40.8961 -111.9744 355° North 227 261 7,800 1,620 Climbing Salt Lake Center
02:59PM 40.9069 -111.9742 North 238 274 8,100 2,400 Climbing Salt Lake Center
02:59PM 40.9639 -111.9797 356° North 266 306 10,000 2,400 Climbing Salt Lake Center
03:00PM 40.9831 -111.9822 354° North 268 308 10,600 2,040 Climbing Salt Lake Center
03:01PM 40.7172 -111.5181 114° Southeast  Level FlightAware Approximate
03:01PM 41.0533 -111.9594 14° North 282 325 12,900  Level Salt Lake Center
03:02PM 40.6820 -111.3795 114° Southeast  Level FlightAware Approximate
03:02PM 41.0117 -111.8483 116° Southeast 324 373 14,300  Level Salt Lake Center
03:03PM 40.6374 -111.2452 114° Southeast  Level FlightAware Approximate
03:03PM 40.9453 -111.7611 135° Southeast 346 398 15,600  Level Salt Lake Center
03:04PM 40.8739 -111.6642 134° Southeast 367 422 16,800 1,200 Climbing Salt Lake Center
03:05PM 40.7983 -111.5644 135° Southeast 384 442 18,100 1,500 Climbing Salt Lake Center
03:06PM 40.7089 -111.4403 134° Southeast 390 449 19,900 1,620 Climbing Salt Lake Center
03:07PM 40.6628 -111.3100 115° Southeast 393 452 21,500 1,560 Climbing Salt Lake Center
03:08PM 40.6256 -111.1778 110° East 388 447 23,200 1,680 Climbing Salt Lake Center
03:09PM 40.5867 -111.0439 111° Southeast 391 450 25,000 1,680 Climbing Salt Lake Center
03:10PM 40.5489 -110.9119 111° Southeast 388 447 26,700 1,620 Climbing Salt Lake Center
03:11PM 40.5117 -110.7839 111° Southeast 378 435 28,400 1,800 Climbing Salt Lake Center
03:12PM 40.4683 -110.6344 111° Southeast 365 420 30,500 1,560 Climbing Salt Lake Center
03:13PM 40.4328 -110.5108 111° Southeast 356 410 31,600 960 Climbing Salt Lake Center
03:14PM 40.3767 -110.4097 126° Southeast 358 412 32,500 780 Climbing Salt Lake Center
03:16PM 40.2242 -110.2206 137° Southeast 366 421 34,200 780 Climbing Denver Center
03:17PM 40.1411 -110.1167 136° Southeast 369 425 35,000 360 Climbing Denver Center
03:18PM 40.0678 -110.0275 137° Southeast 378 435 35,000  Level Salt Lake Center
03:19PM 39.9903 -109.9306 136° Southeast 398 458 35,000  Level Salt Lake Center
03:21PM 39.8950 -109.8122 136° Southeast 421 484 35,000  Level Salt Lake Center
03:22PM 39.8092 -109.7064 137° Southeast 439 505 35,000  Level Salt Lake Center
03:23PM 39.7075 -109.5808 136° Southeast 451 519 35,000  Level Salt Lake Center
03:24PM 39.6189 -109.4717 136° Southeast 458 527 35,000  Level Salt Lake Center
03:25PM 39.5150 -109.3453 137° Southeast 461 531 35,000  Level Salt Lake Center
03:26PM 39.3967 -109.2003 137° Southeast 458 527 35,000  Level Denver Center
03:27PM 39.3089 -109.0944 137° Southeast 453 521 35,000  Level Denver Center
03:28PM 39.2064 -108.9700 137° Southeast 456 525 35,000  Level Denver Center
03:29PM 39.1181 -108.8636 137° Southeast 457 526 35,000  Level Denver Center
03:30PM 39.0006 -108.7725 149° Southeast 448 516 35,000  Level Denver Center
03:31PM 38.8886 -108.7403 167° South 432 497 35,000  Level Denver Center
03:32PM 38.7594 -108.7006 167° South 428 493 35,000  Level Denver Center
03:33PM 38.6478 -108.6667 167° South 430 495 35,000  Level Denver Center
03:34PM 38.5172 -108.6269 167° South 431 496 35,000  Level Denver Center
03:35PM 38.4247 -108.5989 167° South 430 495 35,000  Level Denver Center
03:36PM 38.2792 -108.5556 167° South 420 483 35,000  Level Denver Center
03:37PM 38.1692 -108.5214 166° South 423 487 35,000  Level Denver Center
03:38PM 38.0508 -108.4861 167° South 426 490 35,000  Level Denver Center
03:39PM 37.9400 -108.4494 165° South 429 494 35,000  Level Denver Center
03:41PM 37.8131 -108.4111 167° South 419 482 35,000  Level Denver Center
03:42PM 37.6664 -108.3700 167° South 422 486 35,000  Level Denver Center
03:43PM 37.5561 -108.3372 167° South 424 488 35,000  Level Denver Center
03:44PM 37.4264 -108.2972 166° South 427 491 35,000  Level Denver Center
03:45PM 37.3189 -108.2656 167° South 415 478 35,000  Level Denver Center
03:46PM 37.1986 -108.2294 167° South 397 457 35,000  Level Denver Center
03:47PM 37.1053 -108.1722 154° Southeast 395 455 35,000  Level Denver Center
03:48PM 37.0431 -108.0456 122° Southeast 437 503 35,000  Level Denver Center
03:49PM 36.9764 -107.8994 120° Southeast 434 499 35,000  Level Denver Center
03:50PM 36.9186 -107.7747 120° Southeast 432 497 35,000  Level Denver Center
03:51PM 36.8500 -107.6269 120° Southeast 437 503 35,000  Level Denver Center
03:52PM 36.7911 -107.4992 120° Southeast 442 509 35,000  Level Denver Center
03:53PM 36.7219 -107.3511 120° Southeast 442 509 35,000  Level Denver Center
03:54PM 36.6622 -107.2214 120° Southeast 447 514 35,000  Level Denver Center
03:55PM 36.5917 -107.0708 120° Southeast 449 517 35,000  Level Denver Center
03:56PM 36.5308 -106.9417 120° Southeast 450 518 35,000  Level Denver Center
03:57PM 36.4606 -106.7917 120° Southeast 450 518 35,000  Level Denver Center
03:58PM 36.3928 -106.6706 125° Southeast 445 512 35,000  Level Denver Center
03:59PM 36.3536 -106.6192 133° Southeast 439 505 35,000  Level Albuquerque Center
04:00PM 36.2761 -106.5108 132° Southeast 437 503 35,000  Level Albuquerque Center
04:01PM 36.1961 -106.4003 132° Southeast 445 512 35,000  Level Albuquerque Center
04:02PM 36.1133 -106.2839 131° Southeast 449 517 35,000  Level Albuquerque Center
04:03PM 36.0283 -106.1658 132° Southeast 455 524 35,000  Level Albuquerque Center
04:04PM 35.9247 -106.0247 132° Southeast 459 528 35,000  Level Albuquerque Center
04:05PM 35.8400 -105.9050 131° Southeast 461 531 35,000  Level Albuquerque Center
04:06PM 35.7514 -105.7872 133° Southeast 464 534 35,000  Level Albuquerque Center
04:07PM 35.6661 -105.6686 131° Southeast 464 534 35,000  Level Albuquerque Center
04:08PM 35.5658 -105.5339 132° Southeast 465 535 35,000  Level Albuquerque Center
04:09PM 35.4617 -105.3958 133° Southeast 470 541 35,000  Level Albuquerque Center
04:10PM 35.3733 -105.2767 132° Southeast 469 540 35,000  Level Albuquerque Center
04:11PM 35.2864 -105.1586 132° Southeast 465 535 35,000  Level Albuquerque Center
04:12PM 35.1989 -105.0422 133° Southeast 463 533 35,000  Level Albuquerque Center
04:13PM 35.0978 -104.9081 133° Southeast 460 529 35,000  Level Albuquerque Center
04:14PM 35.0111 -104.7936 133° Southeast 458 527 35,000  Level Albuquerque Center
04:15PM 34.9244 -104.6789 133° Southeast 458 527 35,000  Level Albuquerque Center
04:16PM 34.8378 -104.5656 133° Southeast 457 526 35,000  Level Albuquerque Center
04:17PM 34.7517 -104.4528 133° Southeast 454 522 35,000  Level Albuquerque Center
04:18PM 34.6494 -104.3183 133° Southeast 460 529 35,000  Level Albuquerque Center
04:19PM 34.5608 -104.2047 133° Southeast 461 531 35,000  Level Albuquerque Center
04:20PM 34.4739 -104.0886 132° Southeast 462 532 35,000  Level Albuquerque Center
04:22PM 34.3847 -103.9736 133° Southeast 464 534 35,000  Level Albuquerque Center
04:23PM 34.2967 -103.8589 133° Southeast 463 533 35,000  Level Albuquerque Center
04:24PM 34.2053 -103.7408 133° Southeast 472 543 35,000  Level Albuquerque Center
04:25PM 34.1050 -103.6119 133° Southeast 481 554 35,000  Level Albuquerque Center
04:26PM 34.0117 -103.4950 134° Southeast 484 557 35,000  Level Albuquerque Center
04:27PM 33.9189 -103.3764 133° Southeast 486 559 35,000  Level Albuquerque Center
04:28PM 33.8247 -103.2578 134° Southeast 488 562 35,000  Level Albuquerque Center
04:29PM 33.7314 -103.1408 134° Southeast 487 560 35,000  Level Albuquerque Center
04:30PM 33.6203 -102.9997 133° Southeast 485 558 35,000  Level Albuquerque Center
04:31PM 33.5275 -102.8850 134° Southeast 481 554 35,000  Level Albuquerque Center
04:31PM 33.4942 -102.8456 135° Southeast 485 558 35,000  Level Fort Worth Center
04:32PM 33.3953 -102.7175 133° Southeast 485 558 35,000  Level Fort Worth Center
04:33PM 33.3039 -102.6028 134° Southeast 479 551 35,000  Level Fort Worth Center
04:34PM 33.2083 -102.4906 135° Southeast 484 557 35,000  Level Fort Worth Center
04:35PM 33.1250 -102.3864 134° Southeast 480 552 35,000  Level Fort Worth Center
04:36PM 33.0233 -102.2619 134° Southeast 480 552 35,000  Level Fort Worth Center
04:37PM 32.9339 -102.1481 133° Southeast 474 545 35,000  Level Fort Worth Center
04:38PM 32.8400 -102.0319 134° Southeast 474 545 35,000  Level Fort Worth Center
04:39PM 32.7442 -101.9183 135° Southeast 474 545 35,000  Level Fort Worth Center
04:40PM 32.6519 -101.8053 134° Southeast 474 545 35,000  Level Fort Worth Center
04:41PM 32.5578 -101.6944 135° Southeast 474 545 35,000  Level Fort Worth Center
04:42PM 32.4636 -101.5794 134° Southeast 480 552 35,000  Level Fort Worth Center
04:43PM 32.3669 -101.4667 135° Southeast 480 552 35,000  Level Fort Worth Center
04:44PM 32.2681 -101.3617 138° Southeast 480 552 35,000  Level Fort Worth Center
04:45PM 32.1750 -101.2717 141° Southeast 480 552 35,000  Level Fort Worth Center
04:46PM 32.0658 -101.1494 136° Southeast 480 552 35,000 -120 Level Fort Worth Center
04:47PM 31.9644 -101.0497 140° Southeast 480 552 34,800 -600 Descending Fort Worth Center
04:48PM 31.8589 -100.9428 139° Southeast 491 565 33,800 -900 Descending Fort Worth Center
04:49PM 31.7617 -100.8389 138° Southeast 486 559 33,000 -240 Descending Fort Worth Center
04:52PM 31.5206 -100.6003 140° Southeast 482 555 33,000  Level Houston Center
04:53PM 31.3967 -100.4753 139° Southeast 487 560 33,000  Level Houston Center
04:54PM 31.2878 -100.3825 144° Southeast 486 559 33,000  Level Houston Center
04:55PM 31.1783 -100.2911 144° Southeast 484 557 33,000  Level Houston Center
04:56PM 31.0547 -100.2700 172° South 458 527 33,000  Level Houston Center
04:57PM 30.9319 -100.2683 179° South 441 507 33,000  Level Houston Center
04:58PM 30.8092 -100.2686 180° South 441 507 33,000  Level Houston Center
04:59PM 30.6625 -100.2486 173° South 451 519 33,000  Level Houston Center
05:01PM 30.5711 -100.0703 121° Southeast  Level FlightAware Approximate
05:01PM 30.4822 -100.0169 121° Southeast 498 573 33,000  Level Houston Center
05:02PM 30.4083 -99.8769 121° Southeast 503 579 33,000  Level Houston Center
05:03PM 30.3342 -99.7392 122° Southeast 501 577 33,000  Level Houston Center
05:04PM 30.2631 -99.6031 121° Southeast 494 568 33,000  Level Houston Center
05:05PM 30.1889 -99.4667 122° Southeast 498 573 33,000  Level Houston Center
05:06PM 30.1011 -99.3022 122° Southeast 500 575 33,000  Level Houston Center
05:07PM 30.0272 -99.1644 122° Southeast 503 579 33,000  Level Houston Center
05:08PM 29.9486 -99.0183 122° Southeast 504 580 33,000  Level Houston Center
05:09PM 29.8736 -98.8817 122° Southeast 506 582 33,000  Level Houston Center
05:10PM 29.7939 -98.7356 122° Southeast 500 575 33,000  Level Houston Center
05:11PM 29.7197 -98.5989 122° Southeast 502 578 33,000  Level Houston Center
05:12PM 29.6533 -98.4422 116° Southeast 515 593 33,000  Level Houston Center
05:13PM 29.6478 -98.2744 92° East 522 601 33,000  Level Houston Center
05:15PM 29.6492 -98.1103 89° East 515 593 33,000  Level Houston Center
05:16PM 29.6508 -97.9319 89° East 520 598 33,000  Level Houston Center
05:17PM 29.5936 -97.7825 114° Southeast 518 596 33,000  Level Houston Center
05:18PM 29.5172 -97.6483 123° Southeast 507 583 33,000  Level Houston Center
05:19PM 29.4406 -97.5133 123° Southeast 507 583 33,000 -720 Level Houston Center
05:20PM 29.3775 -97.3731 117° Southeast 507 583 31,600 -1,680 Descending Houston Center
05:21PM 29.3806 -97.2161 89° East 503 579 29,600 -2,700 Descending Houston Center
05:22PM 29.4042 -97.0642 80° East 486 559 26,100 -3,480 Descending Houston Center
05:23PM 29.4264 -96.9242 80° East 445 512 22,500 -3,300 Descending Houston Center
05:24PM 29.4489 -96.7897 79° East 418 481 19,300 -2,700 Descending Houston Center
05:25PM 29.4711 -96.6439 80° East 387 445 16,900 -2,520 Descending Houston Center
05:26PM 29.4853 -96.5450 81° East 358 412 14,600 -2,400 Descending Houston Center
05:27PM 29.5056 -96.4192 79° East 358 412 12,000 -1,920 Descending Houston Center
05:28PM 29.5236 -96.3069 79° East 357 411 10,400 -1,020 Descending Houston Center
05:29PM 29.5403 -96.1994 80° East 347 399 10,000 -240 Descending Houston Center
05:30PM 29.5869 -96.0853 65° Northeast 342 394 10,000  Level Houston Center
05:31PM 29.6303 -95.9994 60° Northeast 340 391 10,000 -420 Level Houston Center
05:32PM 29.7086 -95.9392 34° Northeast 283 326 9,200 -780 Descending Houston Center
05:33PM 29.7803 -95.8969 27° Northeast 279 321 8,400 -960 Descending Houston Center
05:34PM 29.8403 -95.8603 28° Northeast 250 288 7,200 -720 Descending Houston Center
05:35PM 29.8961 -95.8258 28° Northeast 232 267 7,000 -240 Descending Houston Center
05:36PM 29.9461 -95.7964 27° Northeast 208 239 6,800 -600 Descending Houston Center
05:37PM 29.9850 -95.7597 39° Northeast 190 219 5,800 -1,020 Descending Houston Center
05:38PM 29.9914 -95.6944 84° East 171 197 4,700 -780 Descending Houston Center
05:39PM 29.9931 -95.6436 88° East 160 184 4,200 -480 Descending Houston Center
05:40PM 29.9928 -95.5958 90° East 151 174 3,800 -480 Descending Houston Center
05:41PM 29.9925 -95.5450 90° East 148 170 3,300 -660 Descending Houston Center
05:42PM 29.9928 -95.5014 90° East 151 174 2,600 -780 Descending Houston Center